sensor_id;sensor_type;location;lat;lon;timestamp;temperature;humidity
15072;DHT22;7635;56.696;13.002;2022-11-25T00:01:31;5.60;99.90
15072;DHT22;7635;56.696;13.002;2022-11-25T00:03:59;5.60;99.90
15072;DHT22;7635;56.696;13.002;2022-11-25T00:06:29;5.60;99.90
15072;DHT22;7635;56.696;13.002;2022-11-25T00:08:57;5.60;99.90
15072;DHT22;7635;56.696;13.002;2022-11-25T00:11:24;5.60;99.90
15072;DHT22;7635;56.696;13.002;2022-11-25T00:13:51;5.60;99.90
15072;DHT22;7635;56.696;13.002;2022-11-25T00:16:20;5.60;99.90
15072;DHT22;7635;56.696;13.002;2022-11-25T00:18:49;5.60;99.90
15072;DHT22;7635;56.696;13.002;2022-11-25T00:21:18;5.60;99.90
15072;DHT22;7635;56.696;13.002;2022-11-25T00:23:51;5.60;99.90
15072;DHT22;7635;56.696;13.002;2022-11-25T00:26:18;5.60;99.90
15072;DHT22;7635;56.696;13.002;2022-11-25T00:28:46;5.60;99.90
15072;DHT22;7635;56.696;13.002;2022-11-25T00:31:16;5.60;99.90
15072;DHT22;7635;56.696;13.002;2022-11-25T00:33:43;5.60;99.90
15072;DHT22;7635;56.696;13.002;2022-11-25T00:36:15;5.60;99.90
15072;DHT22;7635;56.696;13.002;2022-11-25T00:38:43;5.60;99.90
15072;DHT22;7635;56.696;13.002;2022-11-25T00:41:11;5.60;99.90
15072;DHT22;7635;56.696;13.002;2022-11-25T00:43:56;5.60;99.90
15072;DHT22;7635;56.696;13.002;2022-11-25T00:46:42;5.60;99.90
15072;DHT22;7635;56.696;13.002;2022-11-25T00:49:09;5.60;99.90
15072;DHT22;7635;56.696;13.002;2022-11-25T00:51:36;5.60;99.90
15072;DHT22;7635;56.696;13.002;2022-11-25T00:54:03;5.60;99.90
15072;DHT22;7635;56.696;13.002;2022-11-25T00:56:31;5.60;99.90
15072;DHT22;7635;56.696;13.002;2022-11-25T00:58:58;5.60;99.90
15072;DHT22;7635;56.696;13.002;2022-11-25T01:01:25;5.60;99.90
15072;DHT22;7635;56.696;13.002;2022-11-25T01:03:52;5.60;99.90
15072;DHT22;7635;56.696;13.002;2022-11-25T01:06:19;5.70;99.90
15072;DHT22;7635;56.696;13.002;2022-11-25T01:08:46;5.60;99.90
15072;DHT22;7635;56.696;13.002;2022-11-25T01:11:15;5.70;99.90
15072;DHT22;7635;56.696;13.002;2022-11-25T01:13:44;5.60;99.90
15072;DHT22;7635;56.696;13.002;2022-11-25T01:16:13;5.70;99.90
15072;DHT22;7635;56.696;13.002;2022-11-25T01:18:41;5.70;99.90
15072;DHT22;7635;56.696;13.002;2022-11-25T01:21:10;5.70;99.90
15072;DHT22;7635;56.696;13.002;2022-11-25T01:23:38;5.70;99.90
15072;DHT22;7635;56.696;13.002;2022-11-25T01:26:08;5.70;99.90
15072;DHT22;7635;56.696;13.002;2022-11-25T01:28:36;5.70;99.90
15072;DHT22;7635;56.696;13.002;2022-11-25T01:31:07;5.70;99.90
15072;DHT22;7635;56.696;13.002;2022-11-25T01:33:34;5.70;99.90
15072;DHT22;7635;56.696;13.002;2022-11-25T01:36:02;5.70;99.90
15072;DHT22;7635;56.696;13.002;2022-11-25T01:38:29;5.70;99.90
15072;DHT22;7635;56.696;13.002;2022-11-25T01:40:57;5.60;99.90
15072;DHT22;7635;56.696;13.002;2022-11-25T01:43:24;5.60;99.90
15072;DHT22;7635;56.696;13.002;2022-11-25T01:45:52;5.70;99.90
15072;DHT22;7635;56.696;13.002;2022-11-25T01:48:25;5.60;99.90
15072;DHT22;7635;56.696;13.002;2022-11-25T01:50:53;5.70;99.90
15072;DHT22;7635;56.696;13.002;2022-11-25T01:53:21;5.70;99.90
15072;DHT22;7635;56.696;13.002;2022-11-25T01:55:51;5.70;99.90
15072;DHT22;7635;56.696;13.002;2022-11-25T01:58:23;5.70;99.90
15072;DHT22;7635;56.696;13.002;2022-11-25T02:00:51;5.70;99.90
15072;DHT22;7635;56.696;13.002;2022-11-25T02:03:23;5.60;99.90
15072;DHT22;7635;56.696;13.002;2022-11-25T02:05:57;5.60;99.90
15072;DHT22;7635;56.696;13.002;2022-11-25T02:08:26;5.70;99.90
15072;DHT22;7635;56.696;13.002;2022-11-25T02:10:54;5.60;99.90
15072;DHT22;7635;56.696;13.002;2022-11-25T02:13:22;5.60;99.90
15072;DHT22;7635;56.696;13.002;2022-11-25T02:15:50;5.60;99.90
15072;DHT22;7635;56.696;13.002;2022-11-25T02:18:17;5.60;99.90
15072;DHT22;7635;56.696;13.002;2022-11-25T02:20:45;5.60;99.90
15072;DHT22;7635;56.696;13.002;2022-11-25T02:23:17;5.60;99.90
15072;DHT22;7635;56.696;13.002;2022-11-25T02:25:48;5.60;99.90
15072;DHT22;7635;56.696;13.002;2022-11-25T02:28:17;5.60;99.90
15072;DHT22;7635;56.696;13.002;2022-11-25T02:30:44;5.60;99.90
15072;DHT22;7635;56.696;13.002;2022-11-25T02:33:12;5.60;99.90
15072;DHT22;7635;56.696;13.002;2022-11-25T02:35:40;5.60;99.90
15072;DHT22;7635;56.696;13.002;2022-11-25T02:38:10;5.60;99.90
15072;DHT22;7635;56.696;13.002;2022-11-25T02:40:48;5.60;99.90
15072;DHT22;7635;56.696;13.002;2022-11-25T02:43:17;5.60;99.90
15072;DHT22;7635;56.696;13.002;2022-11-25T02:45:49;5.60;99.90
15072;DHT22;7635;56.696;13.002;2022-11-25T02:48:17;5.60;99.90
15072;DHT22;7635;56.696;13.002;2022-11-25T02:50:44;5.60;99.90
15072;DHT22;7635;56.696;13.002;2022-11-25T02:53:11;5.60;99.90
15072;DHT22;7635;56.696;13.002;2022-11-25T02:55:38;5.60;99.90
15072;DHT22;7635;56.696;13.002;2022-11-25T02:58:06;5.60;99.90
15072;DHT22;7635;56.696;13.002;2022-11-25T03:00:33;5.60;99.90
15072;DHT22;7635;56.696;13.002;2022-11-25T03:02:59;5.60;99.90
15072;DHT22;7635;56.696;13.002;2022-11-25T03:05:26;5.60;99.90
15072;DHT22;7635;56.696;13.002;2022-11-25T03:07:53;5.60;99.90
15072;DHT22;7635;56.696;13.002;2022-11-25T03:10:20;5.60;99.90
15072;DHT22;7635;56.696;13.002;2022-11-25T03:12:47;5.60;99.90
15072;DHT22;7635;56.696;13.002;2022-11-25T03:15:16;5.60;99.90
15072;DHT22;7635;56.696;13.002;2022-11-25T03:17:43;5.60;99.90
15072;DHT22;7635;56.696;13.002;2022-11-25T03:20:11;5.50;99.90
15072;DHT22;7635;56.696;13.002;2022-11-25T03:22:39;5.60;99.90
15072;DHT22;7635;56.696;13.002;2022-11-25T03:25:07;5.60;99.90
15072;DHT22;7635;56.696;13.002;2022-11-25T03:27:34;5.60;99.90
15072;DHT22;7635;56.696;13.002;2022-11-25T03:30:01;5.50;99.90
15072;DHT22;7635;56.696;13.002;2022-11-25T03:32:30;5.50;99.90
15072;DHT22;7635;56.696;13.002;2022-11-25T03:34:57;5.50;99.90
15072;DHT22;7635;56.696;13.002;2022-11-25T03:37:23;5.50;99.90
15072;DHT22;7635;56.696;13.002;2022-11-25T03:39:50;5.50;99.90
15072;DHT22;7635;56.696;13.002;2022-11-25T03:42:17;5.50;99.90
15072;DHT22;7635;56.696;13.002;2022-11-25T03:44:44;5.50;99.90
15072;DHT22;7635;56.696;13.002;2022-11-25T03:47:10;5.50;99.90
15072;DHT22;7635;56.696;13.002;2022-11-25T03:49:39;5.50;99.90
15072;DHT22;7635;56.696;13.002;2022-11-25T03:52:05;5.50;99.90
15072;DHT22;7635;56.696;13.002;2022-11-25T03:54:32;5.50;99.90
15072;DHT22;7635;56.696;13.002;2022-11-25T03:56:59;5.50;99.90
15072;DHT22;7635;56.696;13.002;2022-11-25T03:59:26;5.50;99.90
15072;DHT22;7635;56.696;13.002;2022-11-25T04:01:52;5.50;99.90
15072;DHT22;7635;56.696;13.002;2022-11-25T04:04:19;5.50;99.90
15072;DHT22;7635;56.696;13.002;2022-11-25T04:06:47;5.50;99.90
15072;DHT22;7635;56.696;13.002;2022-11-25T04:09:14;5.50;99.90
15072;DHT22;7635;56.696;13.002;2022-11-25T04:11:41;5.50;99.90
15072;DHT22;7635;56.696;13.002;2022-11-25T04:14:25;5.50;99.90
15072;DHT22;7635;56.696;13.002;2022-11-25T04:16:52;5.50;99.90
15072;DHT22;7635;56.696;13.002;2022-11-25T04:19:19;5.50;99.90
15072;DHT22;7635;56.696;13.002;2022-11-25T04:21:47;5.50;99.90
15072;DHT22;7635;56.696;13.002;2022-11-25T04:24:14;5.50;99.90
15072;DHT22;7635;56.696;13.002;2022-11-25T04:26:40;5.50;99.90
15072;DHT22;7635;56.696;13.002;2022-11-25T04:29:07;5.50;99.90
15072;DHT22;7635;56.696;13.002;2022-11-25T04:31:34;5.50;99.90
15072;DHT22;7635;56.696;13.002;2022-11-25T04:34:02;5.50;99.90
15072;DHT22;7635;56.696;13.002;2022-11-25T04:36:29;5.50;99.90
15072;DHT22;7635;56.696;13.002;2022-11-25T04:38:58;5.50;99.90
15072;DHT22;7635;56.696;13.002;2022-11-25T04:41:24;5.50;99.90
15072;DHT22;7635;56.696;13.002;2022-11-25T04:43:51;5.50;99.90
15072;DHT22;7635;56.696;13.002;2022-11-25T04:46:20;5.50;99.90
15072;DHT22;7635;56.696;13.002;2022-11-25T04:48:47;5.50;99.90
15072;DHT22;7635;56.696;13.002;2022-11-25T04:51:14;5.50;99.90
15072;DHT22;7635;56.696;13.002;2022-11-25T04:53:41;5.50;99.90
15072;DHT22;7635;56.696;13.002;2022-11-25T04:56:15;5.50;99.90
15072;DHT22;7635;56.696;13.002;2022-11-25T04:58:41;5.40;99.90
15072;DHT22;7635;56.696;13.002;2022-11-25T05:01:26;5.40;99.90
15072;DHT22;7635;56.696;13.002;2022-11-25T05:03:52;5.40;99.90
15072;DHT22;7635;56.696;13.002;2022-11-25T05:06:19;5.40;99.90
15072;DHT22;7635;56.696;13.002;2022-11-25T05:08:47;5.50;99.90
15072;DHT22;7635;56.696;13.002;2022-11-25T05:11:16;5.40;99.90
15072;DHT22;7635;56.696;13.002;2022-11-25T05:13:42;5.40;99.90
15072;DHT22;7635;56.696;13.002;2022-11-25T05:16:09;5.50;99.90
15072;DHT22;7635;56.696;13.002;2022-11-25T05:18:36;5.50;99.90
15072;DHT22;7635;56.696;13.002;2022-11-25T05:21:03;5.50;99.90
15072;DHT22;7635;56.696;13.002;2022-11-25T05:23:30;5.40;99.90
15072;DHT22;7635;56.696;13.002;2022-11-25T05:25:58;5.50;99.90
15072;DHT22;7635;56.696;13.002;2022-11-25T05:28:27;5.50;99.90
15072;DHT22;7635;56.696;13.002;2022-11-25T05:30:54;5.50;99.90
15072;DHT22;7635;56.696;13.002;2022-11-25T05:33:21;5.50;99.90
15072;DHT22;7635;56.696;13.002;2022-11-25T05:35:54;5.50;99.90
15072;DHT22;7635;56.696;13.002;2022-11-25T05:38:21;5.50;99.90
15072;DHT22;7635;56.696;13.002;2022-11-25T05:40:48;5.50;99.90
15072;DHT22;7635;56.696;13.002;2022-11-25T05:43:16;5.50;99.90
15072;DHT22;7635;56.696;13.002;2022-11-25T05:45:44;5.40;99.90
15072;DHT22;7635;56.696;13.002;2022-11-25T05:48:10;5.40;99.90
15072;DHT22;7635;56.696;13.002;2022-11-25T05:50:37;5.40;99.90
15072;DHT22;7635;56.696;13.002;2022-11-25T05:53:04;5.40;99.90
15072;DHT22;7635;56.696;13.002;2022-11-25T05:55:31;5.40;99.90
15072;DHT22;7635;56.696;13.002;2022-11-25T05:57:58;5.40;99.90
15072;DHT22;7635;56.696;13.002;2022-11-25T06:00:25;5.40;99.90
15072;DHT22;7635;56.696;13.002;2022-11-25T06:02:54;5.40;99.90
15072;DHT22;7635;56.696;13.002;2022-11-25T06:05:20;5.50;99.90
15072;DHT22;7635;56.696;13.002;2022-11-25T06:07:47;5.40;99.90
15072;DHT22;7635;56.696;13.002;2022-11-25T06:10:14;5.40;99.90
15072;DHT22;7635;56.696;13.002;2022-11-25T06:12:41;5.40;99.90
15072;DHT22;7635;56.696;13.002;2022-11-25T06:15:09;5.40;99.90
15072;DHT22;7635;56.696;13.002;2022-11-25T06:17:36;5.40;99.90
15072;DHT22;7635;56.696;13.002;2022-11-25T06:20:05;5.40;99.90
15072;DHT22;7635;56.696;13.002;2022-11-25T06:22:32;5.40;99.90
15072;DHT22;7635;56.696;13.002;2022-11-25T06:24:59;5.40;99.90
15072;DHT22;7635;56.696;13.002;2022-11-25T06:27:25;5.40;99.90
15072;DHT22;7635;56.696;13.002;2022-11-25T06:29:52;5.40;99.90
15072;DHT22;7635;56.696;13.002;2022-11-25T06:32:19;5.40;99.90
15072;DHT22;7635;56.696;13.002;2022-11-25T06:34:46;5.40;99.90
15072;DHT22;7635;56.696;13.002;2022-11-25T06:37:14;5.40;99.90
15072;DHT22;7635;56.696;13.002;2022-11-25T06:39:40;5.40;99.90
15072;DHT22;7635;56.696;13.002;2022-11-25T06:42:07;5.40;99.90
15072;DHT22;7635;56.696;13.002;2022-11-25T06:44:34;5.40;99.90
15072;DHT22;7635;56.696;13.002;2022-11-25T06:47:01;5.30;99.90
15072;DHT22;7635;56.696;13.002;2022-11-25T06:49:27;5.40;99.90
15072;DHT22;7635;56.696;13.002;2022-11-25T06:51:54;5.40;99.90
15072;DHT22;7635;56.696;13.002;2022-11-25T06:54:23;5.40;99.90
15072;DHT22;7635;56.696;13.002;2022-11-25T06:56:49;5.40;99.90
15072;DHT22;7635;56.696;13.002;2022-11-25T06:59:18;5.40;99.90
15072;DHT22;7635;56.696;13.002;2022-11-25T07:01:45;5.40;99.90
15072;DHT22;7635;56.696;13.002;2022-11-25T07:04:12;5.40;99.90
15072;DHT22;7635;56.696;13.002;2022-11-25T07:06:39;5.40;99.90
15072;DHT22;7635;56.696;13.002;2022-11-25T07:09:06;5.40;99.90
15072;DHT22;7635;56.696;13.002;2022-11-25T07:11:35;5.30;99.90
15072;DHT22;7635;56.696;13.002;2022-11-25T07:14:04;5.40;99.90
15072;DHT22;7635;56.696;13.002;2022-11-25T07:16:31;5.30;99.90
15072;DHT22;7635;56.696;13.002;2022-11-25T07:18:59;5.30;99.90
15072;DHT22;7635;56.696;13.002;2022-11-25T07:21:27;5.30;99.90
15072;DHT22;7635;56.696;13.002;2022-11-25T07:23:55;5.30;99.90
15072;DHT22;7635;56.696;13.002;2022-11-25T07:26:25;5.30;99.90
15072;DHT22;7635;56.696;13.002;2022-11-25T07:28:54;5.30;99.90
15072;DHT22;7635;56.696;13.002;2022-11-25T07:31:26;5.30;99.90
15072;DHT22;7635;56.696;13.002;2022-11-25T07:33:54;5.30;99.90
15072;DHT22;7635;56.696;13.002;2022-11-25T07:36:22;5.30;99.90
15072;DHT22;7635;56.696;13.002;2022-11-25T07:38:49;5.30;99.90
15072;DHT22;7635;56.696;13.002;2022-11-25T07:41:18;5.30;99.90
15072;DHT22;7635;56.696;13.002;2022-11-25T07:43:45;5.30;99.90
15072;DHT22;7635;56.696;13.002;2022-11-25T07:46:15;5.30;99.90
15072;DHT22;7635;56.696;13.002;2022-11-25T07:48:43;5.30;99.90
15072;DHT22;7635;56.696;13.002;2022-11-25T07:51:14;5.30;99.90
15072;DHT22;7635;56.696;13.002;2022-11-25T07:53:41;5.30;99.90
15072;DHT22;7635;56.696;13.002;2022-11-25T07:56:08;5.30;99.90
15072;DHT22;7635;56.696;13.002;2022-11-25T07:58:35;5.30;99.90
15072;DHT22;7635;56.696;13.002;2022-11-25T08:01:02;5.30;99.90
15072;DHT22;7635;56.696;13.002;2022-11-25T08:03:32;5.30;99.90
15072;DHT22;7635;56.696;13.002;2022-11-25T08:06:00;5.30;99.90
15072;DHT22;7635;56.696;13.002;2022-11-25T08:08:27;5.30;99.90
15072;DHT22;7635;56.696;13.002;2022-11-25T08:10:53;5.30;99.90
15072;DHT22;7635;56.696;13.002;2022-11-25T08:13:20;5.30;99.90
15072;DHT22;7635;56.696;13.002;2022-11-25T08:15:47;5.30;99.90
15072;DHT22;7635;56.696;13.002;2022-11-25T08:18:14;5.30;99.90
15072;DHT22;7635;56.696;13.002;2022-11-25T08:20:42;5.30;99.90
15072;DHT22;7635;56.696;13.002;2022-11-25T08:23:09;5.30;99.90
15072;DHT22;7635;56.696;13.002;2022-11-25T08:25:38;5.30;99.90
15072;DHT22;7635;56.696;13.002;2022-11-25T08:28:05;5.30;99.90
15072;DHT22;7635;56.696;13.002;2022-11-25T08:30:32;5.30;99.90
15072;DHT22;7635;56.696;13.002;2022-11-25T08:32:59;5.30;99.90
15072;DHT22;7635;56.696;13.002;2022-11-25T08:35:26;5.30;99.90
15072;DHT22;7635;56.696;13.002;2022-11-25T08:37:54;5.30;99.90
15072;DHT22;7635;56.696;13.002;2022-11-25T08:40:21;5.30;99.90
15072;DHT22;7635;56.696;13.002;2022-11-25T08:42:47;5.30;99.90
15072;DHT22;7635;56.696;13.002;2022-11-25T08:45:14;5.30;99.90
15072;DHT22;7635;56.696;13.002;2022-11-25T08:47:41;5.30;99.90
15072;DHT22;7635;56.696;13.002;2022-11-25T08:50:09;5.30;99.90
15072;DHT22;7635;56.696;13.002;2022-11-25T08:52:36;5.30;99.90
15072;DHT22;7635;56.696;13.002;2022-11-25T08:55:05;5.30;99.90
15072;DHT22;7635;56.696;13.002;2022-11-25T08:57:33;5.30;99.90
15072;DHT22;7635;56.696;13.002;2022-11-25T08:59:59;5.30;99.90
15072;DHT22;7635;56.696;13.002;2022-11-25T09:02:26;5.30;99.90
15072;DHT22;7635;56.696;13.002;2022-11-25T09:04:53;5.30;99.90
15072;DHT22;7635;56.696;13.002;2022-11-25T09:07:20;5.30;99.90
15072;DHT22;7635;56.696;13.002;2022-11-25T09:09:46;5.30;99.90
15072;DHT22;7635;56.696;13.002;2022-11-25T09:12:15;5.30;99.90
15072;DHT22;7635;56.696;13.002;2022-11-25T09:14:42;5.40;99.90
15072;DHT22;7635;56.696;13.002;2022-11-25T09:17:09;5.40;99.90
15072;DHT22;7635;56.696;13.002;2022-11-25T09:19:36;5.40;99.90
15072;DHT22;7635;56.696;13.002;2022-11-25T09:22:03;5.40;99.90
15072;DHT22;7635;56.696;13.002;2022-11-25T09:24:30;5.40;99.90
15072;DHT22;7635;56.696;13.002;2022-11-25T09:26:57;5.50;99.90
15072;DHT22;7635;56.696;13.002;2022-11-25T09:29:25;5.50;99.90
15072;DHT22;7635;56.696;13.002;2022-11-25T09:31:54;5.50;99.90
15072;DHT22;7635;56.696;13.002;2022-11-25T09:34:21;5.50;99.90
15072;DHT22;7635;56.696;13.002;2022-11-25T09:36:48;5.50;99.90
15072;DHT22;7635;56.696;13.002;2022-11-25T09:39:14;5.60;99.90
15072;DHT22;7635;56.696;13.002;2022-11-25T09:41:55;5.60;99.90
15072;DHT22;7635;56.696;13.002;2022-11-25T09:44:53;5.60;99.90
15072;DHT22;7635;56.696;13.002;2022-11-25T09:47:47;5.60;99.90
15072;DHT22;7635;56.696;13.002;2022-11-25T09:50:21;5.60;99.90
15072;DHT22;7635;56.696;13.002;2022-11-25T09:52:58;5.60;99.90
15072;DHT22;7635;56.696;13.002;2022-11-25T09:55:31;5.70;99.90
15072;DHT22;7635;56.696;13.002;2022-11-25T09:58:09;5.70;99.90
15072;DHT22;7635;56.696;13.002;2022-11-25T10:00:41;5.70;99.90
15072;DHT22;7635;56.696;13.002;2022-11-25T10:03:13;5.70;99.90
15072;DHT22;7635;56.696;13.002;2022-11-25T10:05:46;5.70;99.90
15072;DHT22;7635;56.696;13.002;2022-11-25T10:08:18;5.70;99.90
15072;DHT22;7635;56.696;13.002;2022-11-25T10:10:47;5.70;99.90
15072;DHT22;7635;56.696;13.002;2022-11-25T10:13:17;5.80;99.90
15072;DHT22;7635;56.696;13.002;2022-11-25T10:15:48;5.80;99.90
15072;DHT22;7635;56.696;13.002;2022-11-25T10:18:20;5.90;99.90
15072;DHT22;7635;56.696;13.002;2022-11-25T10:20:50;5.90;99.90
15072;DHT22;7635;56.696;13.002;2022-11-25T10:23:21;6.10;99.90
15072;DHT22;7635;56.696;13.002;2022-11-25T10:25:52;6.20;99.90
15072;DHT22;7635;56.696;13.002;2022-11-25T10:28:22;6.30;99.90
15072;DHT22;7635;56.696;13.002;2022-11-25T10:30:57;6.60;99.90
15072;DHT22;7635;56.696;13.002;2022-11-25T10:33:28;6.70;99.90
15072;DHT22;7635;56.696;13.002;2022-11-25T10:35:57;6.80;99.90
15072;DHT22;7635;56.696;13.002;2022-11-25T10:38:28;7.00;99.90
15072;DHT22;7635;56.696;13.002;2022-11-25T10:41:02;7.10;99.90
15072;DHT22;7635;56.696;13.002;2022-11-25T10:43:29;7.10;99.90
15072;DHT22;7635;56.696;13.002;2022-11-25T10:46:07;7.00;99.90
15072;DHT22;7635;56.696;13.002;2022-11-25T10:48:48;7.00;99.90
15072;DHT22;7635;56.696;13.002;2022-11-25T10:51:35;6.90;99.90
15072;DHT22;7635;56.696;13.002;2022-11-25T10:54:10;6.90;99.90
15072;DHT22;7635;56.696;13.002;2022-11-25T10:56:43;6.90;99.90
15072;DHT22;7635;56.696;13.002;2022-11-25T10:59:14;6.80;99.90
15072;DHT22;7635;56.696;13.002;2022-11-25T11:01:49;6.70;99.90
15072;DHT22;7635;56.696;13.002;2022-11-25T11:04:16;6.70;99.90
15072;DHT22;7635;56.696;13.002;2022-11-25T11:06:45;6.60;99.90
15072;DHT22;7635;56.696;13.002;2022-11-25T11:09:31;6.60;99.90
15072;DHT22;7635;56.696;13.002;2022-11-25T11:12:12;6.70;99.90
15072;DHT22;7635;56.696;13.002;2022-11-25T11:14:39;6.60;99.90
15072;DHT22;7635;56.696;13.002;2022-11-25T11:17:23;6.70;99.90
15072;DHT22;7635;56.696;13.002;2022-11-25T11:20:00;6.70;99.90
15072;DHT22;7635;56.696;13.002;2022-11-25T11:22:27;6.70;99.90
15072;DHT22;7635;56.696;13.002;2022-11-25T11:25:04;6.70;99.90
15072;DHT22;7635;56.696;13.002;2022-11-25T11:27:35;6.80;99.90
15072;DHT22;7635;56.696;13.002;2022-11-25T11:30:08;6.80;99.90
15072;DHT22;7635;56.696;13.002;2022-11-25T11:32:38;6.70;99.90
15072;DHT22;7635;56.696;13.002;2022-11-25T11:35:15;6.70;99.90
15072;DHT22;7635;56.696;13.002;2022-11-25T11:37:50;6.70;99.90
15072;DHT22;7635;56.696;13.002;2022-11-25T11:40:24;6.70;99.90
15072;DHT22;7635;56.696;13.002;2022-11-25T11:43:18;6.70;99.90
15072;DHT22;7635;56.696;13.002;2022-11-25T11:45:58;6.70;99.90
15072;DHT22;7635;56.696;13.002;2022-11-25T11:48:37;6.70;99.90
15072;DHT22;7635;56.696;13.002;2022-11-25T11:51:11;6.70;99.90
15072;DHT22;7635;56.696;13.002;2022-11-25T11:53:45;6.60;99.90
15072;DHT22;7635;56.696;13.002;2022-11-25T11:56:19;6.60;99.90
15072;DHT22;7635;56.696;13.002;2022-11-25T11:58:57;6.60;99.90
15072;DHT22;7635;56.696;13.002;2022-11-25T12:01:39;6.70;99.90
15072;DHT22;7635;56.696;13.002;2022-11-25T12:04:17;6.70;99.90
15072;DHT22;7635;56.696;13.002;2022-11-25T12:06:58;6.70;99.90
15072;DHT22;7635;56.696;13.002;2022-11-25T12:09:28;6.60;99.90
15072;DHT22;7635;56.696;13.002;2022-11-25T12:12:01;6.60;99.90
15072;DHT22;7635;56.696;13.002;2022-11-25T12:14:35;6.60;99.90
15072;DHT22;7635;56.696;13.002;2022-11-25T12:17:09;6.50;99.90
15072;DHT22;7635;56.696;13.002;2022-11-25T12:19:44;6.50;99.90
15072;DHT22;7635;56.696;13.002;2022-11-25T12:22:18;6.50;99.90
15072;DHT22;7635;56.696;13.002;2022-11-25T12:24:51;6.50;99.90
15072;DHT22;7635;56.696;13.002;2022-11-25T12:27:25;6.50;99.90
15072;DHT22;7635;56.696;13.002;2022-11-25T12:29:57;6.50;99.90
15072;DHT22;7635;56.696;13.002;2022-11-25T12:32:55;6.50;99.90
15072;DHT22;7635;56.696;13.002;2022-11-25T12:35:35;6.50;99.90
15072;DHT22;7635;56.696;13.002;2022-11-25T12:38:16;6.50;99.90
15072;DHT22;7635;56.696;13.002;2022-11-25T12:40:47;6.50;99.90
15072;DHT22;7635;56.696;13.002;2022-11-25T12:43:24;6.50;99.90
15072;DHT22;7635;56.696;13.002;2022-11-25T12:46:03;6.50;99.90
15072;DHT22;7635;56.696;13.002;2022-11-25T12:48:38;6.50;99.90
15072;DHT22;7635;56.696;13.002;2022-11-25T12:51:15;6.40;99.90
15072;DHT22;7635;56.696;13.002;2022-11-25T12:53:49;6.40;99.90
15072;DHT22;7635;56.696;13.002;2022-11-25T12:56:23;6.40;99.90
15072;DHT22;7635;56.696;13.002;2022-11-25T12:59:04;6.40;99.90
15072;DHT22;7635;56.696;13.002;2022-11-25T13:01:48;6.40;99.90
15072;DHT22;7635;56.696;13.002;2022-11-25T13:07:33;6.30;99.90
15072;DHT22;7635;56.696;13.002;2022-11-25T13:10:35;6.30;99.90
15072;DHT22;7635;56.696;13.002;2022-11-25T13:13:21;6.30;99.90
15072;DHT22;7635;56.696;13.002;2022-11-25T13:15:51;6.30;99.90
15072;DHT22;7635;56.696;13.002;2022-11-25T13:18:20;6.30;99.90
15072;DHT22;7635;56.696;13.002;2022-11-25T13:20:49;6.30;99.90
15072;DHT22;7635;56.696;13.002;2022-11-25T13:23:25;6.30;99.90
15072;DHT22;7635;56.696;13.002;2022-11-25T13:28:59;6.30;99.90
15072;DHT22;7635;56.696;13.002;2022-11-25T13:31:31;6.30;99.90
15072;DHT22;7635;56.696;13.002;2022-11-25T13:34:23;6.30;99.90
15072;DHT22;7635;56.696;13.002;2022-11-25T13:36:52;6.30;99.90
15072;DHT22;7635;56.696;13.002;2022-11-25T13:39:29;6.30;99.90
15072;DHT22;7635;56.696;13.002;2022-11-25T13:42:01;6.30;99.90
15072;DHT22;7635;56.696;13.002;2022-11-25T13:44:31;6.20;99.90
15072;DHT22;7635;56.696;13.002;2022-11-25T13:47:24;6.20;99.90
15072;DHT22;7635;56.696;13.002;2022-11-25T13:49:55;6.20;99.90
15072;DHT22;7635;56.696;13.002;2022-11-25T13:52:34;6.20;99.90
15072;DHT22;7635;56.696;13.002;2022-11-25T13:55:20;6.20;99.90
15072;DHT22;7635;56.696;13.002;2022-11-25T13:58:01;6.20;99.90
15072;DHT22;7635;56.696;13.002;2022-11-25T14:00:58;6.20;99.90
15072;DHT22;7635;56.696;13.002;2022-11-25T14:03:50;6.20;99.90
15072;DHT22;7635;56.696;13.002;2022-11-25T14:06:55;6.20;99.90
15072;DHT22;7635;56.696;13.002;2022-11-25T14:09:37;6.20;99.90
15072;DHT22;7635;56.696;13.002;2022-11-25T14:12:26;6.10;99.90
15072;DHT22;7635;56.696;13.002;2022-11-25T14:15:16;6.20;99.90
15072;DHT22;7635;56.696;13.002;2022-11-25T14:18:04;6.10;99.90
15072;DHT22;7635;56.696;13.002;2022-11-25T14:20:42;6.10;99.90
15072;DHT22;7635;56.696;13.002;2022-11-25T14:26:30;6.10;99.90
15072;DHT22;7635;56.696;13.002;2022-11-25T14:29:02;6.10;99.90
15072;DHT22;7635;56.696;13.002;2022-11-25T14:31:35;6.10;99.90
15072;DHT22;7635;56.696;13.002;2022-11-25T14:34:09;6.00;99.90
15072;DHT22;7635;56.696;13.002;2022-11-25T14:36:40;6.00;99.90
15072;DHT22;7635;56.696;13.002;2022-11-25T14:39:12;6.00;99.90
15072;DHT22;7635;56.696;13.002;2022-11-25T14:41:44;6.00;99.90
15072;DHT22;7635;56.696;13.002;2022-11-25T14:44:19;6.00;99.90
15072;DHT22;7635;56.696;13.002;2022-11-25T14:46:51;5.90;99.90
15072;DHT22;7635;56.696;13.002;2022-11-25T14:49:19;5.90;99.90
15072;DHT22;7635;56.696;13.002;2022-11-25T14:51:47;5.90;99.90
15072;DHT22;7635;56.696;13.002;2022-11-25T14:54:15;5.90;99.90
15072;DHT22;7635;56.696;13.002;2022-11-25T14:56:44;5.90;99.90
15072;DHT22;7635;56.696;13.002;2022-11-25T14:59:12;5.90;99.90
15072;DHT22;7635;56.696;13.002;2022-11-25T15:01:51;5.90;99.90
15072;DHT22;7635;56.696;13.002;2022-11-25T15:04:19;5.90;99.90
15072;DHT22;7635;56.696;13.002;2022-11-25T15:06:51;5.80;99.90
15072;DHT22;7635;56.696;13.002;2022-11-25T15:09:21;5.80;99.90
15072;DHT22;7635;56.696;13.002;2022-11-25T15:11:52;5.80;99.90
15072;DHT22;7635;56.696;13.002;2022-11-25T15:14:24;5.80;99.90
15072;DHT22;7635;56.696;13.002;2022-11-25T15:16:52;5.80;99.90
15072;DHT22;7635;56.696;13.002;2022-11-25T15:19:21;5.70;99.90
15072;DHT22;7635;56.696;13.002;2022-11-25T15:21:55;5.70;99.90
15072;DHT22;7635;56.696;13.002;2022-11-25T15:24:24;5.70;99.90
15072;DHT22;7635;56.696;13.002;2022-11-25T15:26:53;5.70;99.90
15072;DHT22;7635;56.696;13.002;2022-11-25T15:29:20;5.60;99.90
15072;DHT22;7635;56.696;13.002;2022-11-25T15:31:49;5.60;99.90
15072;DHT22;7635;56.696;13.002;2022-11-25T15:34:19;5.60;99.90
15072;DHT22;7635;56.696;13.002;2022-11-25T15:36:47;5.60;99.90
15072;DHT22;7635;56.696;13.002;2022-11-25T15:39:16;5.60;99.90
15072;DHT22;7635;56.696;13.002;2022-11-25T15:41:49;5.60;99.90
15072;DHT22;7635;56.696;13.002;2022-11-25T15:44:19;5.50;99.90
15072;DHT22;7635;56.696;13.002;2022-11-25T15:46:53;5.50;99.90
15072;DHT22;7635;56.696;13.002;2022-11-25T15:49:23;5.50;99.90
15072;DHT22;7635;56.696;13.002;2022-11-25T15:51:52;5.50;99.90
15072;DHT22;7635;56.696;13.002;2022-11-25T15:54:23;5.50;99.90
15072;DHT22;7635;56.696;13.002;2022-11-25T15:56:53;5.40;99.90
15072;DHT22;7635;56.696;13.002;2022-11-25T15:59:46;5.40;99.90
15072;DHT22;7635;56.696;13.002;2022-11-25T16:02:37;5.40;99.90
15072;DHT22;7635;56.696;13.002;2022-11-25T16:05:29;5.40;99.90
15072;DHT22;7635;56.696;13.002;2022-11-25T16:10:51;5.30;99.90
15072;DHT22;7635;56.696;13.002;2022-11-25T16:13:29;5.30;99.90
15072;DHT22;7635;56.696;13.002;2022-11-25T16:16:13;5.30;99.90
15072;DHT22;7635;56.696;13.002;2022-11-25T16:18:43;5.30;99.90
15072;DHT22;7635;56.696;13.002;2022-11-25T16:21:16;5.30;99.90